Date,TemperatureHighF,TemperatureAvgF,TemperatureLowF,DewpointHighF,DewpointAvgF,DewpointLowF,HumidityHigh,HumidityAvg,HumidityLow,PressureMaxIn,PressureMinIn,WindSpeedMaxMPH,WindSpeedAvgMPH,GustSpeedMaxMPH,PrecipitationSumIn
2013-1-1,60.1,53.5,49.8,46.4,37.3,32.0,71,56,48,30.18,30.09,10,5,17,0.00
2013-1-2,61.5,53.6,48.2,33.8,31.8,28.4,55,44,35,30.27,30.18,8,6,15,0.00
2013-1-3,58.1,53.2,47.1,37.4,32.5,26.6,59,46,38,30.59,30.27,14,6,26,0.00
2013-1-4,57.9,51.9,44.2,44.6,40.1,35.6,82,67,49,30.62,30.53,7,2,13,0.00
2013-1-5,66.6,54.3,43.5,44.6,37.4,32.0,93,59,33,30.56,30.41,8,4,13,0.00
2013-1-6,65.5,58.2,54.0,35.6,32.7,30.2,44,39,34,30.41,30.30,10,8,17,0.00
2013-1-7,64.2,56.9,52.0,35.6,33.7,30.2,54,43,35,30.33,30.24,10,8,20,0.00
2013-1-8,63.0,55.7,51.8,33.8,31.8,28.4,48,41,34,30.39,30.30,10,8,17,0.00
2013-1-9,62.4,55.2,50.4,33.8,31.3,26.6,45,40,36,30.36,30.27,12,9,19,0.00
2013-1-10,68.7,59.6,54.7,39.2,36.3,33.8,49,43,34,30.30,30.18,10,8,17,0.00
2013-1-11,67.1,59.4,55.6,41.0,37.7,35.6,58,47,34,30.21,30.12,8,6,15,0.00
2013-1-12,67.3,57.6,50.9,42.8,36.3,32.0,67,47,34,30.21,30.09,7,4,14,0.00
2013-1-13,58.1,52.8,48.9,42.8,33.1,28.4,77,48,36,30.09,30.00,15,6,26,0.04
2013-1-14,59.5,52.3,46.4,32.0,29.3,26.6,49,40,35,30.24,30.09,10,8,20,0.00
2013-1-15,58.3,52.0,47.1,32.0,29.4,26.6,46,40,36,30.21,30.15,12,7,21,0.00
2013-1-16,57.6,53.9,48.7,37.4,31.9,30.2,55,43,38,30.21,30.03,15,6,24,0.00
2013-1-17,66.0,60.3,56.3,42.8,37.5,33.8,62,45,34,30.09,30.00,11,6,21,0.00
2013-1-18,67.8,62.3,57.7,46.4,42.4,39.2,56,50,41,30.03,29.74,6,2,14,0.00
2013-1-19,62.1,55.6,50.0,51.8,37.8,28.4,82,53,38,29.74,29.29,20,10,39,0.71
2013-1-20,58.1,52.0,47.7,39.2,30.1,26.6,69,42,36,29.82,29.50,13,7,23,0.00
2013-1-21,58.3,52.7,49.1,48.2,34.3,28.4,94,52,36,30.03,29.74,14,7,26,0.16
2013-1-22,55.8,49.2,42.3,41.0,31.6,28.4,66,51,42,30.03,29.88,11,3,21,0.00
2013-1-23,56.8,51.1,45.9,32.0,28.3,24.8,50,40,36,30.18,29.97,14,8,26,0.00
2013-1-24,61.9,55.8,49.3,42.8,36.5,30.2,63,50,37,30.15,29.97,13,6,26,0.00
2013-1-25,60.8,56.1,50.9,46.4,39.7,33.8,68,56,46,30.06,29.97,6,4,14,0.00
2013-1-26,68.0,60.8,56.7,44.6,40.9,35.6,67,50,36,30.18,30.06,11,7,17,0.00
2013-1-27,64.8,58.5,53.8,41.0,36.8,33.8,56,46,36,30.18,30.12,9,6,21,0.00
2013-1-28,65.7,56.7,50.9,41.0,32.6,26.6,54,41,34,30.36,30.15,12,6,23,0.00
2013-1-29,68.5,53.6,43.9,37.4,30.7,24.8,53,41,33,30.36,30.30,6,2,9,0.00
2013-1-30,73.9,56.4,42.4,41.0,33.9,28.4,60,44,31,30.39,30.33,6,2,9,0.00
2013-1-31,67.5,60.0,51.6,37.4,32.9,28.4,47,36,33,30.44,30.36,7,3,12,0.00